sensor_id;sensor_type;location;lat;lon;timestamp;temperature;humidity
10245;DHT22;5167;52.164;10.530;2023-11-21T00:02:13;11.00;58.30
10245;DHT22;5167;52.164;10.530;2023-11-21T00:04:39;11.00;58.50
10245;DHT22;5167;52.164;10.530;2023-11-21T00:07:04;11.00;58.10
10245;DHT22;5167;52.164;10.530;2023-11-21T00:09:31;11.00;58.30
10245;DHT22;5167;52.164;10.530;2023-11-21T00:11:57;11.10;58.30
10245;DHT22;5167;52.164;10.530;2023-11-21T00:14:22;11.00;58.10
10245;DHT22;5167;52.164;10.530;2023-11-21T00:16:48;11.00;58.40
10245;DHT22;5167;52.164;10.530;2023-11-21T00:19:14;11.00;58.20
10245;DHT22;5167;52.164;10.530;2023-11-21T00:21:39;11.10;59.00
10245;DHT22;5167;52.164;10.530;2023-11-21T00:24:05;11.10;59.00
10245;DHT22;5167;52.164;10.530;2023-11-21T00:26:30;11.00;58.90
10245;DHT22;5167;52.164;10.530;2023-11-21T00:28:57;11.10;58.60
10245;DHT22;5167;52.164;10.530;2023-11-21T00:31:22;11.10;58.60
10245;DHT22;5167;52.164;10.530;2023-11-21T00:33:48;11.00;58.70
10245;DHT22;5167;52.164;10.530;2023-11-21T00:36:13;11.10;59.50
10245;DHT22;5167;52.164;10.530;2023-11-21T00:38:39;11.10;58.90
10245;DHT22;5167;52.164;10.530;2023-11-21T00:41:05;11.10;59.30
10245;DHT22;5167;52.164;10.530;2023-11-21T00:43:31;11.10;58.70
10245;DHT22;5167;52.164;10.530;2023-11-21T00:45:58;11.10;59.10
10245;DHT22;5167;52.164;10.530;2023-11-21T00:48:24;11.10;58.90
10245;DHT22;5167;52.164;10.530;2023-11-21T00:50:49;11.10;59.50
10245;DHT22;5167;52.164;10.530;2023-11-21T00:53:15;11.10;59.50
10245;DHT22;5167;52.164;10.530;2023-11-21T00:55:41;11.10;60.00
10245;DHT22;5167;52.164;10.530;2023-11-21T00:58:06;11.10;59.80
10245;DHT22;5167;52.164;10.530;2023-11-21T01:00:33;11.10;60.00
10245;DHT22;5167;52.164;10.530;2023-11-21T01:02:59;11.10;60.10
10245;DHT22;5167;52.164;10.530;2023-11-21T01:05:25;11.10;60.80
10245;DHT22;5167;52.164;10.530;2023-11-21T01:07:50;11.00;60.40
10245;DHT22;5167;52.164;10.530;2023-11-21T01:10:16;11.10;61.40
10245;DHT22;5167;52.164;10.530;2023-11-21T01:12:42;11.10;61.50
10245;DHT22;5167;52.164;10.530;2023-11-21T01:15:08;11.10;61.40
10245;DHT22;5167;52.164;10.530;2023-11-21T01:17:34;11.10;61.40
10245;DHT22;5167;52.164;10.530;2023-11-21T01:20:01;11.00;61.50
10245;DHT22;5167;52.164;10.530;2023-11-21T01:22:26;11.00;61.40
10245;DHT22;5167;52.164;10.530;2023-11-21T01:24:53;11.10;61.90
10245;DHT22;5167;52.164;10.530;2023-11-21T01:27:19;11.10;62.60
10245;DHT22;5167;52.164;10.530;2023-11-21T01:29:44;11.10;62.60
10245;DHT22;5167;52.164;10.530;2023-11-21T01:32:10;11.20;62.50
10245;DHT22;5167;52.164;10.530;2023-11-21T01:34:36;11.10;62.60
10245;DHT22;5167;52.164;10.530;2023-11-21T01:37:02;11.00;62.30
10245;DHT22;5167;52.164;10.530;2023-11-21T01:39:30;11.10;62.50
10245;DHT22;5167;52.164;10.530;2023-11-21T01:41:55;11.10;63.60
10245;DHT22;5167;52.164;10.530;2023-11-21T01:44:24;11.10;62.90
10245;DHT22;5167;52.164;10.530;2023-11-21T01:46:50;11.10;63.90
10245;DHT22;5167;52.164;10.530;2023-11-21T01:49:16;11.10;63.40
10245;DHT22;5167;52.164;10.530;2023-11-21T01:51:44;11.00;63.90
10245;DHT22;5167;52.164;10.530;2023-11-21T01:54:12;11.00;64.10
10245;DHT22;5167;52.164;10.530;2023-11-21T01:56:38;11.00;64.60
10245;DHT22;5167;52.164;10.530;2023-11-21T01:59:04;11.00;64.40
10245;DHT22;5167;52.164;10.530;2023-11-21T02:01:30;11.00;63.90
10245;DHT22;5167;52.164;10.530;2023-11-21T02:03:56;10.90;64.00
10245;DHT22;5167;52.164;10.530;2023-11-21T02:06:22;11.00;63.90
10245;DHT22;5167;52.164;10.530;2023-11-21T02:08:48;11.00;64.00
10245;DHT22;5167;52.164;10.530;2023-11-21T02:11:14;11.00;64.00
10245;DHT22;5167;52.164;10.530;2023-11-21T02:13:39;10.90;64.30
10245;DHT22;5167;52.164;10.530;2023-11-21T02:16:10;10.90;64.90
10245;DHT22;5167;52.164;10.530;2023-11-21T02:18:38;10.90;65.20
10245;DHT22;5167;52.164;10.530;2023-11-21T02:21:04;10.90;65.90
10245;DHT22;5167;52.164;10.530;2023-11-21T02:23:30;10.90;65.80
10245;DHT22;5167;52.164;10.530;2023-11-21T02:25:55;11.00;65.10
10245;DHT22;5167;52.164;10.530;2023-11-21T02:28:21;10.90;65.70
10245;DHT22;5167;52.164;10.530;2023-11-21T02:30:51;10.90;65.80
10245;DHT22;5167;52.164;10.530;2023-11-21T02:33:21;10.90;66.10
10245;DHT22;5167;52.164;10.530;2023-11-21T02:35:47;11.00;65.80
10245;DHT22;5167;52.164;10.530;2023-11-21T02:38:13;11.00;66.00
10245;DHT22;5167;52.164;10.530;2023-11-21T02:40:39;11.00;66.20
10245;DHT22;5167;52.164;10.530;2023-11-21T02:43:04;11.00;66.40
10245;DHT22;5167;52.164;10.530;2023-11-21T02:45:31;11.10;66.70
10245;DHT22;5167;52.164;10.530;2023-11-21T02:47:57;11.00;66.70
10245;DHT22;5167;52.164;10.530;2023-11-21T02:50:23;11.00;66.30
10245;DHT22;5167;52.164;10.530;2023-11-21T02:52:49;11.00;66.80
10245;DHT22;5167;52.164;10.530;2023-11-21T02:55:14;11.00;67.30
10245;DHT22;5167;52.164;10.530;2023-11-21T02:57:40;11.00;66.50
10245;DHT22;5167;52.164;10.530;2023-11-21T03:00:06;11.00;66.50
10245;DHT22;5167;52.164;10.530;2023-11-21T03:02:40;11.00;67.10
10245;DHT22;5167;52.164;10.530;2023-11-21T03:05:07;11.10;67.10
10245;DHT22;5167;52.164;10.530;2023-11-21T03:07:34;11.00;67.10
10245;DHT22;5167;52.164;10.530;2023-11-21T03:10:00;11.00;67.30
10245;DHT22;5167;52.164;10.530;2023-11-21T03:12:26;11.00;67.80
10245;DHT22;5167;52.164;10.530;2023-11-21T03:14:51;11.10;68.10
10245;DHT22;5167;52.164;10.530;2023-11-21T03:17:17;11.10;67.80
10245;DHT22;5167;52.164;10.530;2023-11-21T03:19:42;11.10;68.30
10245;DHT22;5167;52.164;10.530;2023-11-21T03:22:08;11.20;68.40
10245;DHT22;5167;52.164;10.530;2023-11-21T03:24:34;11.20;67.80
10245;DHT22;5167;52.164;10.530;2023-11-21T03:27:00;11.20;67.70
10245;DHT22;5167;52.164;10.530;2023-11-21T03:29:26;11.20;67.80
10245;DHT22;5167;52.164;10.530;2023-11-21T03:31:51;11.20;68.00
10245;DHT22;5167;52.164;10.530;2023-11-21T03:34:26;11.30;68.10
10245;DHT22;5167;52.164;10.530;2023-11-21T03:36:52;11.20;67.30
10245;DHT22;5167;52.164;10.530;2023-11-21T03:39:20;11.20;68.00
10245;DHT22;5167;52.164;10.530;2023-11-21T03:41:45;11.20;68.10
10245;DHT22;5167;52.164;10.530;2023-11-21T03:44:11;11.20;68.40
10245;DHT22;5167;52.164;10.530;2023-11-21T03:46:36;11.30;68.30
10245;DHT22;5167;52.164;10.530;2023-11-21T03:49:02;11.30;69.00
10245;DHT22;5167;52.164;10.530;2023-11-21T03:51:27;11.40;68.70
10245;DHT22;5167;52.164;10.530;2023-11-21T03:53:53;11.30;68.40
10245;DHT22;5167;52.164;10.530;2023-11-21T03:56:19;11.30;68.40
10245;DHT22;5167;52.164;10.530;2023-11-21T03:58:47;11.40;68.30
10245;DHT22;5167;52.164;10.530;2023-11-21T04:01:22;11.40;68.80
10245;DHT22;5167;52.164;10.530;2023-11-21T04:03:48;11.40;68.60
10245;DHT22;5167;52.164;10.530;2023-11-21T04:06:14;11.40;68.40
10245;DHT22;5167;52.164;10.530;2023-11-21T04:08:39;11.30;68.50
10245;DHT22;5167;52.164;10.530;2023-11-21T04:11:05;11.40;68.40
10245;DHT22;5167;52.164;10.530;2023-11-21T04:13:30;11.40;68.50
10245;DHT22;5167;52.164;10.530;2023-11-21T04:15:56;11.40;67.90
10245;DHT22;5167;52.164;10.530;2023-11-21T04:18:22;11.30;68.00
10245;DHT22;5167;52.164;10.530;2023-11-21T04:20:48;11.40;68.10
10245;DHT22;5167;52.164;10.530;2023-11-21T04:23:14;11.30;68.40
10245;DHT22;5167;52.164;10.530;2023-11-21T04:25:40;11.30;69.10
10245;DHT22;5167;52.164;10.530;2023-11-21T04:28:06;11.30;69.80
10245;DHT22;5167;52.164;10.530;2023-11-21T04:30:31;11.30;69.30
10245;DHT22;5167;52.164;10.530;2023-11-21T04:32:58;11.30;70.20
10245;DHT22;5167;52.164;10.530;2023-11-21T04:35:23;11.30;70.80
10245;DHT22;5167;52.164;10.530;2023-11-21T04:37:49;11.20;71.00
10245;DHT22;5167;52.164;10.530;2023-11-21T04:40:16;11.30;71.30
10245;DHT22;5167;52.164;10.530;2023-11-21T04:42:42;11.30;71.70
10245;DHT22;5167;52.164;10.530;2023-11-21T04:45:08;11.30;72.20
10245;DHT22;5167;52.164;10.530;2023-11-21T04:47:35;11.30;72.30
10245;DHT22;5167;52.164;10.530;2023-11-21T04:50:00;11.30;72.30
10245;DHT22;5167;52.164;10.530;2023-11-21T04:52:26;11.30;72.60
10245;DHT22;5167;52.164;10.530;2023-11-21T04:54:51;11.30;72.40
10245;DHT22;5167;52.164;10.530;2023-11-21T04:57:20;11.30;72.00
10245;DHT22;5167;52.164;10.530;2023-11-21T04:59:45;11.20;72.50
10245;DHT22;5167;52.164;10.530;2023-11-21T05:02:11;11.20;72.80
10245;DHT22;5167;52.164;10.530;2023-11-21T05:04:37;11.20;72.80
10245;DHT22;5167;52.164;10.530;2023-11-21T05:07:03;11.30;73.60
10245;DHT22;5167;52.164;10.530;2023-11-21T05:09:28;11.30;73.90
10245;DHT22;5167;52.164;10.530;2023-11-21T05:11:57;11.20;74.30
10245;DHT22;5167;52.164;10.530;2023-11-21T05:14:23;11.20;74.60
10245;DHT22;5167;52.164;10.530;2023-11-21T05:16:48;11.30;75.00
10245;DHT22;5167;52.164;10.530;2023-11-21T05:19:16;11.30;75.50
10245;DHT22;5167;52.164;10.530;2023-11-21T05:21:41;11.20;75.60
10245;DHT22;5167;52.164;10.530;2023-11-21T05:24:07;11.20;76.00
10245;DHT22;5167;52.164;10.530;2023-11-21T05:26:32;11.20;75.90
10245;DHT22;5167;52.164;10.530;2023-11-21T05:28:58;11.30;76.90
10245;DHT22;5167;52.164;10.530;2023-11-21T05:31:23;11.30;76.80
10245;DHT22;5167;52.164;10.530;2023-11-21T05:33:49;11.20;77.10
10245;DHT22;5167;52.164;10.530;2023-11-21T05:36:14;11.20;76.80
10245;DHT22;5167;52.164;10.530;2023-11-21T05:38:40;11.30;76.80
10245;DHT22;5167;52.164;10.530;2023-11-21T05:41:06;11.30;77.00
10245;DHT22;5167;52.164;10.530;2023-11-21T05:43:32;11.30;77.20
10245;DHT22;5167;52.164;10.530;2023-11-21T05:46:00;11.20;76.80
10245;DHT22;5167;52.164;10.530;2023-11-21T05:48:26;11.20;77.90
10245;DHT22;5167;52.164;10.530;2023-11-21T05:50:52;11.20;78.70
10245;DHT22;5167;52.164;10.530;2023-11-21T05:53:18;11.20;79.30
10245;DHT22;5167;52.164;10.530;2023-11-21T05:55:43;11.20;80.10
10245;DHT22;5167;52.164;10.530;2023-11-21T05:58:09;11.20;80.70
10245;DHT22;5167;52.164;10.530;2023-11-21T06:00:34;11.30;80.70
10245;DHT22;5167;52.164;10.530;2023-11-21T06:03:00;11.30;81.10
10245;DHT22;5167;52.164;10.530;2023-11-21T06:05:26;11.30;82.50
10245;DHT22;5167;52.164;10.530;2023-11-21T06:07:55;11.10;82.50
10245;DHT22;5167;52.164;10.530;2023-11-21T06:10:24;11.10;83.10
10245;DHT22;5167;52.164;10.530;2023-11-21T06:12:50;11.20;83.80
10245;DHT22;5167;52.164;10.530;2023-11-21T06:15:15;11.20;84.40
10245;DHT22;5167;52.164;10.530;2023-11-21T06:17:42;11.10;84.80
10245;DHT22;5167;52.164;10.530;2023-11-21T06:20:11;11.10;85.60
10245;DHT22;5167;52.164;10.530;2023-11-21T06:22:40;11.20;86.60
10245;DHT22;5167;52.164;10.530;2023-11-21T06:25:07;11.20;86.80
10245;DHT22;5167;52.164;10.530;2023-11-21T06:27:40;11.20;86.20
10245;DHT22;5167;52.164;10.530;2023-11-21T06:30:06;11.20;86.20
10245;DHT22;5167;52.164;10.530;2023-11-21T06:32:34;11.20;85.60
10245;DHT22;5167;52.164;10.530;2023-11-21T06:35:01;11.20;85.80
10245;DHT22;5167;52.164;10.530;2023-11-21T06:37:28;11.10;85.90
10245;DHT22;5167;52.164;10.530;2023-11-21T06:39:54;11.10;85.90
10245;DHT22;5167;52.164;10.530;2023-11-21T06:42:21;11.10;86.50
10245;DHT22;5167;52.164;10.530;2023-11-21T06:44:47;11.10;87.20
10245;DHT22;5167;52.164;10.530;2023-11-21T06:47:14;11.20;87.20
10245;DHT22;5167;52.164;10.530;2023-11-21T06:49:40;11.20;87.10
10245;DHT22;5167;52.164;10.530;2023-11-21T06:52:06;11.10;87.20
10245;DHT22;5167;52.164;10.530;2023-11-21T06:54:32;11.10;87.70
10245;DHT22;5167;52.164;10.530;2023-11-21T06:56:58;11.10;86.20
10245;DHT22;5167;52.164;10.530;2023-11-21T06:59:23;10.80;84.10
10245;DHT22;5167;52.164;10.530;2023-11-21T07:01:50;10.90;80.30
10245;DHT22;5167;52.164;10.530;2023-11-21T07:04:15;10.70;79.40
10245;DHT22;5167;52.164;10.530;2023-11-21T07:06:41;10.60;79.20
10245;DHT22;5167;52.164;10.530;2023-11-21T07:09:07;10.50;79.50
10245;DHT22;5167;52.164;10.530;2023-11-21T07:11:34;10.40;79.80
10245;DHT22;5167;52.164;10.530;2023-11-21T07:14:00;10.40;79.40
10245;DHT22;5167;52.164;10.530;2023-11-21T07:16:28;10.30;78.80
10245;DHT22;5167;52.164;10.530;2023-11-21T07:18:55;10.10;78.90
10245;DHT22;5167;52.164;10.530;2023-11-21T07:21:21;10.10;79.90
10245;DHT22;5167;52.164;10.530;2023-11-21T07:23:46;10.00;79.50
10245;DHT22;5167;52.164;10.530;2023-11-21T07:26:12;10.00;80.80
10245;DHT22;5167;52.164;10.530;2023-11-21T07:28:38;9.90;80.70
10245;DHT22;5167;52.164;10.530;2023-11-21T07:31:03;9.90;81.70
10245;DHT22;5167;52.164;10.530;2023-11-21T07:33:29;9.90;82.10
10245;DHT22;5167;52.164;10.530;2023-11-21T07:35:54;9.90;82.70
10245;DHT22;5167;52.164;10.530;2023-11-21T07:38:20;9.90;83.20
10245;DHT22;5167;52.164;10.530;2023-11-21T07:40:45;9.90;83.10
10245;DHT22;5167;52.164;10.530;2023-11-21T07:43:11;9.90;82.50
10245;DHT22;5167;52.164;10.530;2023-11-21T07:45:37;9.80;82.90
10245;DHT22;5167;52.164;10.530;2023-11-21T07:48:03;9.80;82.70
10245;DHT22;5167;52.164;10.530;2023-11-21T07:50:30;9.80;82.50
10245;DHT22;5167;52.164;10.530;2023-11-21T07:52:57;9.70;82.60
10245;DHT22;5167;52.164;10.530;2023-11-21T07:55:23;9.70;82.90
10245;DHT22;5167;52.164;10.530;2023-11-21T07:57:50;9.70;82.70
10245;DHT22;5167;52.164;10.530;2023-11-21T08:00:15;9.70;82.70
10245;DHT22;5167;52.164;10.530;2023-11-21T08:02:41;9.70;83.30
10245;DHT22;5167;52.164;10.530;2023-11-21T08:05:12;9.60;82.70
10245;DHT22;5167;52.164;10.530;2023-11-21T08:07:38;9.60;82.80
10245;DHT22;5167;52.164;10.530;2023-11-21T08:10:04;9.60;82.60
10245;DHT22;5167;52.164;10.530;2023-11-21T08:12:30;9.50;81.50
10245;DHT22;5167;52.164;10.530;2023-11-21T08:14:56;9.50;81.00
10245;DHT22;5167;52.164;10.530;2023-11-21T08:17:21;9.50;81.30
10245;DHT22;5167;52.164;10.530;2023-11-21T08:19:47;9.50;81.30
10245;DHT22;5167;52.164;10.530;2023-11-21T08:22:15;9.50;81.20
10245;DHT22;5167;52.164;10.530;2023-11-21T08:24:44;9.40;79.60
10245;DHT22;5167;52.164;10.530;2023-11-21T08:27:10;9.30;79.50
10245;DHT22;5167;52.164;10.530;2023-11-21T08:29:35;9.30;77.60
10245;DHT22;5167;52.164;10.530;2023-11-21T08:32:02;9.20;77.60
10245;DHT22;5167;52.164;10.530;2023-11-21T08:34:27;9.30;72.10
10245;DHT22;5167;52.164;10.530;2023-11-21T08:36:54;9.30;67.60
10245;DHT22;5167;52.164;10.530;2023-11-21T08:39:19;9.20;64.50
10245;DHT22;5167;52.164;10.530;2023-11-21T08:41:45;9.20;63.30
10245;DHT22;5167;52.164;10.530;2023-11-21T08:44:11;9.20;63.60
10245;DHT22;5167;52.164;10.530;2023-11-21T08:46:36;9.20;64.00
10245;DHT22;5167;52.164;10.530;2023-11-21T08:49:04;9.30;63.50
10245;DHT22;5167;52.164;10.530;2023-11-21T08:51:30;9.30;62.40
10245;DHT22;5167;52.164;10.530;2023-11-21T08:53:55;9.30;62.40
10245;DHT22;5167;52.164;10.530;2023-11-21T08:56:24;9.30;62.10
10245;DHT22;5167;52.164;10.530;2023-11-21T08:58:50;9.40;62.10
10245;DHT22;5167;52.164;10.530;2023-11-21T09:01:16;9.40;61.30
10245;DHT22;5167;52.164;10.530;2023-11-21T09:03:42;9.40;60.40
10245;DHT22;5167;52.164;10.530;2023-11-21T09:06:09;9.40;61.00
10245;DHT22;5167;52.164;10.530;2023-11-21T09:08:35;9.50;60.40
10245;DHT22;5167;52.164;10.530;2023-11-21T09:11:00;9.50;60.00
10245;DHT22;5167;52.164;10.530;2023-11-21T09:13:26;9.50;60.50
10245;DHT22;5167;52.164;10.530;2023-11-21T09:15:51;9.60;59.30
10245;DHT22;5167;52.164;10.530;2023-11-21T09:18:17;9.60;58.00
10245;DHT22;5167;52.164;10.530;2023-11-21T09:20:43;9.50;58.30
10245;DHT22;5167;52.164;10.530;2023-11-21T09:23:12;9.50;58.10
10245;DHT22;5167;52.164;10.530;2023-11-21T09:25:37;9.50;58.80
10245;DHT22;5167;52.164;10.530;2023-11-21T09:28:04;9.60;58.80
10245;DHT22;5167;52.164;10.530;2023-11-21T09:30:33;9.50;57.50
10245;DHT22;5167;52.164;10.530;2023-11-21T09:32:59;9.50;56.80
10245;DHT22;5167;52.164;10.530;2023-11-21T09:35:25;9.60;57.30
10245;DHT22;5167;52.164;10.530;2023-11-21T09:37:52;9.60;54.10
10245;DHT22;5167;52.164;10.530;2023-11-21T09:40:22;9.50;52.40
10245;DHT22;5167;52.164;10.530;2023-11-21T09:42:57;9.60;50.60
10245;DHT22;5167;52.164;10.530;2023-11-21T09:45:28;9.50;47.80
10245;DHT22;5167;52.164;10.530;2023-11-21T09:47:55;9.50;45.50
10245;DHT22;5167;52.164;10.530;2023-11-21T09:50:21;9.40;44.60
10245;DHT22;5167;52.164;10.530;2023-11-21T09:53:09;9.40;44.70
10245;DHT22;5167;52.164;10.530;2023-11-21T09:55:37;9.40;44.60
10245;DHT22;5167;52.164;10.530;2023-11-21T09:58:04;9.40;44.80
10245;DHT22;5167;52.164;10.530;2023-11-21T10:00:33;9.50;44.70
10245;DHT22;5167;52.164;10.530;2023-11-21T10:02:59;9.60;44.80
10245;DHT22;5167;52.164;10.530;2023-11-21T10:05:25;9.50;41.90
10245;DHT22;5167;52.164;10.530;2023-11-21T10:07:51;9.50;40.10
10245;DHT22;5167;52.164;10.530;2023-11-21T10:10:19;9.50;41.00
10245;DHT22;5167;52.164;10.530;2023-11-21T10:12:49;9.50;41.00
10245;DHT22;5167;52.164;10.530;2023-11-21T10:15:20;9.40;41.80
10245;DHT22;5167;52.164;10.530;2023-11-21T10:17:48;9.50;41.90
10245;DHT22;5167;52.164;10.530;2023-11-21T10:20:15;9.50;39.70
10245;DHT22;5167;52.164;10.530;2023-11-21T10:22:42;9.50;40.10
10245;DHT22;5167;52.164;10.530;2023-11-21T10:25:08;9.70;39.00
10245;DHT22;5167;52.164;10.530;2023-11-21T10:27:38;9.60;38.90
10245;DHT22;5167;52.164;10.530;2023-11-21T10:30:05;9.50;37.80
10245;DHT22;5167;52.164;10.530;2023-11-21T10:32:31;9.50;37.50
10245;DHT22;5167;52.164;10.530;2023-11-21T10:34:59;9.50;37.40
10245;DHT22;5167;52.164;10.530;2023-11-21T10:37:26;9.50;37.00
10245;DHT22;5167;52.164;10.530;2023-11-21T10:39:57;9.50;36.90
10245;DHT22;5167;52.164;10.530;2023-11-21T10:42:24;9.50;36.40
10245;DHT22;5167;52.164;10.530;2023-11-21T10:44:49;9.50;36.30
10245;DHT22;5167;52.164;10.530;2023-11-21T10:47:16;9.50;36.70
10245;DHT22;5167;52.164;10.530;2023-11-21T10:49:44;9.40;37.00
10245;DHT22;5167;52.164;10.530;2023-11-21T10:52:13;9.50;37.10
10245;DHT22;5167;52.164;10.530;2023-11-21T10:54:43;9.50;38.20
10245;DHT22;5167;52.164;10.530;2023-11-21T10:57:10;9.60;37.80
10245;DHT22;5167;52.164;10.530;2023-11-21T10:59:36;9.60;38.60
10245;DHT22;5167;52.164;10.530;2023-11-21T11:02:14;9.60;37.40
10245;DHT22;5167;52.164;10.530;2023-11-21T11:04:48;9.70;37.50
10245;DHT22;5167;52.164;10.530;2023-11-21T11:07:14;9.70;37.20
10245;DHT22;5167;52.164;10.530;2023-11-21T11:09:41;9.70;37.40
10245;DHT22;5167;52.164;10.530;2023-11-21T11:12:08;9.70;36.50
10245;DHT22;5167;52.164;10.530;2023-11-21T11:14:35;9.70;35.80
10245;DHT22;5167;52.164;10.530;2023-11-21T11:17:02;9.70;35.10
10245;DHT22;5167;52.164;10.530;2023-11-21T11:19:29;9.60;34.70
10245;DHT22;5167;52.164;10.530;2023-11-21T11:22:06;9.70;34.70
10245;DHT22;5167;52.164;10.530;2023-11-21T11:27:52;9.70;34.60
10245;DHT22;5167;52.164;10.530;2023-11-21T11:33:14;9.80;35.00
10245;DHT22;5167;52.164;10.530;2023-11-21T11:36:01;9.70;34.90
10245;DHT22;5167;52.164;10.530;2023-11-21T11:38:32;9.80;34.40
10245;DHT22;5167;52.164;10.530;2023-11-21T11:41:02;9.70;33.80
10245;DHT22;5167;52.164;10.530;2023-11-21T11:43:29;9.80;33.20
10245;DHT22;5167;52.164;10.530;2023-11-21T11:45:57;9.70;32.60
10245;DHT22;5167;52.164;10.530;2023-11-21T11:48:24;9.70;32.90
10245;DHT22;5167;52.164;10.530;2023-11-21T11:51:03;9.70;33.20
10245;DHT22;5167;52.164;10.530;2023-11-21T11:53:43;9.80;34.00
10245;DHT22;5167;52.164;10.530;2023-11-21T11:56:25;9.80;32.80
10245;DHT22;5167;52.164;10.530;2023-11-21T11:58:55;9.80;32.50
10245;DHT22;5167;52.164;10.530;2023-11-21T12:01:22;9.80;32.60
10245;DHT22;5167;52.164;10.530;2023-11-21T12:06:42;9.70;32.60
10245;DHT22;5167;52.164;10.530;2023-11-21T12:09:21;9.80;31.60
10245;DHT22;5167;52.164;10.530;2023-11-21T12:11:47;9.80;31.80
10245;DHT22;5167;52.164;10.530;2023-11-21T12:14:14;9.70;30.50
10245;DHT22;5167;52.164;10.530;2023-11-21T12:16:40;9.70;31.50
10245;DHT22;5167;52.164;10.530;2023-11-21T12:19:08;9.80;30.60
10245;DHT22;5167;52.164;10.530;2023-11-21T12:21:33;9.70;30.90
10245;DHT22;5167;52.164;10.530;2023-11-21T12:23:59;9.80;31.80
10245;DHT22;5167;52.164;10.530;2023-11-21T12:26:25;9.80;32.50
10245;DHT22;5167;52.164;10.530;2023-11-21T12:28:54;9.80;32.20
10245;DHT22;5167;52.164;10.530;2023-11-21T12:31:23;9.90;33.10
10245;DHT22;5167;52.164;10.530;2023-11-21T12:33:48;9.90;33.00
10245;DHT22;5167;52.164;10.530;2023-11-21T12:36:15;9.90;31.80
10245;DHT22;5167;52.164;10.530;2023-11-21T12:38:41;9.90;30.20
10245;DHT22;5167;52.164;10.530;2023-11-21T12:41:07;9.90;28.90
10245;DHT22;5167;52.164;10.530;2023-11-21T12:43:33;9.80;28.80
10245;DHT22;5167;52.164;10.530;2023-11-21T12:46:13;9.80;29.80
10245;DHT22;5167;52.164;10.530;2023-11-21T12:48:39;9.80;29.00
10245;DHT22;5167;52.164;10.530;2023-11-21T12:51:08;9.80;28.60
10245;DHT22;5167;52.164;10.530;2023-11-21T12:53:35;9.80;28.90
10245;DHT22;5167;52.164;10.530;2023-11-21T12:56:07;9.80;30.00
10245;DHT22;5167;52.164;10.530;2023-11-21T12:58:35;9.90;30.30
10245;DHT22;5167;52.164;10.530;2023-11-21T13:01:01;9.90;29.70
10245;DHT22;5167;52.164;10.530;2023-11-21T13:03:29;9.90;30.00
10245;DHT22;5167;52.164;10.530;2023-11-21T13:05:55;9.90;30.60
10245;DHT22;5167;52.164;10.530;2023-11-21T13:08:23;10.00;30.60
10245;DHT22;5167;52.164;10.530;2023-11-21T13:10:54;10.00;30.40
10245;DHT22;5167;52.164;10.530;2023-11-21T13:13:21;10.00;30.20
10245;DHT22;5167;52.164;10.530;2023-11-21T13:15:54;9.90;28.40
10245;DHT22;5167;52.164;10.530;2023-11-21T13:18:27;10.00;26.30
10245;DHT22;5167;52.164;10.530;2023-11-21T13:20:55;9.90;26.80
10245;DHT22;5167;52.164;10.530;2023-11-21T13:23:21;9.90;25.60
10245;DHT22;5167;52.164;10.530;2023-11-21T13:25:48;9.80;25.40
10245;DHT22;5167;52.164;10.530;2023-11-21T13:28:15;9.90;26.20
10245;DHT22;5167;52.164;10.530;2023-11-21T13:30:46;9.80;26.00
10245;DHT22;5167;52.164;10.530;2023-11-21T13:33:13;9.70;26.30
10245;DHT22;5167;52.164;10.530;2023-11-21T13:35:44;9.70;26.10
10245;DHT22;5167;52.164;10.530;2023-11-21T13:38:15;9.70;26.40
10245;DHT22;5167;52.164;10.530;2023-11-21T13:40:50;9.60;26.10
10245;DHT22;5167;52.164;10.530;2023-11-21T13:43:20;9.70;26.20
10245;DHT22;5167;52.164;10.530;2023-11-21T13:45:48;9.70;27.00
10245;DHT22;5167;52.164;10.530;2023-11-21T13:48:17;9.70;25.90
10245;DHT22;5167;52.164;10.530;2023-11-21T13:50:50;9.70;26.80
10245;DHT22;5167;52.164;10.530;2023-11-21T13:53:27;9.70;25.90
10245;DHT22;5167;52.164;10.530;2023-11-21T13:55:54;9.70;25.80
10245;DHT22;5167;52.164;10.530;2023-11-21T13:58:23;9.70;25.40
10245;DHT22;5167;52.164;10.530;2023-11-21T14:00:53;9.70;24.30
10245;DHT22;5167;52.164;10.530;2023-11-21T14:03:22;9.70;23.90
10245;DHT22;5167;52.164;10.530;2023-11-21T14:05:50;9.70;23.90
10245;DHT22;5167;52.164;10.530;2023-11-21T14:08:22;9.60;23.50
10245;DHT22;5167;52.164;10.530;2023-11-21T14:10:57;9.60;23.70
10245;DHT22;5167;52.164;10.530;2023-11-21T14:13:25;9.60;23.80
10245;DHT22;5167;52.164;10.530;2023-11-21T14:15:51;9.50;24.20
10245;DHT22;5167;52.164;10.530;2023-11-21T14:18:25;9.50;23.70
10245;DHT22;5167;52.164;10.530;2023-11-21T14:21:04;9.50;23.90
10245;DHT22;5167;52.164;10.530;2023-11-21T14:23:31;9.50;24.60
10245;DHT22;5167;52.164;10.530;2023-11-21T14:25:56;9.40;25.10
10245;DHT22;5167;52.164;10.530;2023-11-21T14:28:23;9.40;25.60
10245;DHT22;5167;52.164;10.530;2023-11-21T14:30:49;9.40;26.10
10245;DHT22;5167;52.164;10.530;2023-11-21T14:33:14;9.50;26.20
10245;DHT22;5167;52.164;10.530;2023-11-21T14:35:42;9.40;25.30
10245;DHT22;5167;52.164;10.530;2023-11-21T14:38:08;9.50;25.60
10245;DHT22;5167;52.164;10.530;2023-11-21T14:40:35;9.50;24.90
10245;DHT22;5167;52.164;10.530;2023-11-21T14:43:01;9.50;25.20
10245;DHT22;5167;52.164;10.530;2023-11-21T14:45:30;9.40;24.50
10245;DHT22;5167;52.164;10.530;2023-11-21T14:47:56;9.40;24.70
10245;DHT22;5167;52.164;10.530;2023-11-21T14:50:32;9.40;23.60
10245;DHT22;5167;52.164;10.530;2023-11-21T14:53:06;9.40;23.00
10245;DHT22;5167;52.164;10.530;2023-11-21T14:55:33;9.30;23.10
10245;DHT22;5167;52.164;10.530;2023-11-21T14:58:16;9.30;23.60
10245;DHT22;5167;52.164;10.530;2023-11-21T15:01:00;9.20;22.60
10245;DHT22;5167;52.164;10.530;2023-11-21T15:03:27;9.10;23.90
10245;DHT22;5167;52.164;10.530;2023-11-21T15:06:04;9.10;22.80
10245;DHT22;5167;52.164;10.530;2023-11-21T15:08:58;9.10;23.00
10245;DHT22;5167;52.164;10.530;2023-11-21T15:11:33;9.10;23.30
10245;DHT22;5167;52.164;10.530;2023-11-21T15:13:58;9.10;23.40
10245;DHT22;5167;52.164;10.530;2023-11-21T15:16:25;9.00;22.50
10245;DHT22;5167;52.164;10.530;2023-11-21T15:18:53;9.20;22.70
10245;DHT22;5167;52.164;10.530;2023-11-21T15:21:20;9.00;22.70
10245;DHT22;5167;52.164;10.530;2023-11-21T15:23:47;8.90;22.50
10245;DHT22;5167;52.164;10.530;2023-11-21T15:26:13;9.00;21.80
10245;DHT22;5167;52.164;10.530;2023-11-21T15:28:38;9.00;21.80
10245;DHT22;5167;52.164;10.530;2023-11-21T15:31:04;9.00;22.00
10245;DHT22;5167;52.164;10.530;2023-11-21T15:33:30;9.00;21.90
10245;DHT22;5167;52.164;10.530;2023-11-21T15:35:56;8.90;21.20
10245;DHT22;5167;52.164;10.530;2023-11-21T15:38:23;9.00;21.60
10245;DHT22;5167;52.164;10.530;2023-11-21T15:40:49;8.90;20.70
10245;DHT22;5167;52.164;10.530;2023-11-21T15:43:15;8.90;19.60
10245;DHT22;5167;52.164;10.530;2023-11-21T15:45:41;8.80;19.40
10245;DHT22;5167;52.164;10.530;2023-11-21T15:48:06;8.80;18.80